Details for SAS (Scandinavian Airlines) at EKCH




Go Back


Latest METAR
Local Time

EKCH 241320Z 07009KT 030V110 9999 FEW035 M01/M10 Q1036 NOSIG

24/02/2018, 14:36:48

Description
Results
SAS (Scandinavian Airlines) Logo
Number of Pilots based at EKCH
1 Pilots Based here
Number of SAS (Scandinavian Airlines) Flights Departed from EKCH
46 Flights Departed
Number of SAS (Scandinavian Airlines) Flights Arrived at EKCH
42 Flights Arrived
Number of SAS (Scandinavian Airlines) Schedules Departing from EKCH
298 Schedules
Number of SAS (Scandinavian Airlines) Schedules Arriving at EKCH
300 Schedules
Number of SAS (Scandinavian Airlines) Schedules Departing from EKCH availible today
89 Schedules Today
Number of SAS (Scandinavian Airlines) Schedules Arriving at EKCH availible today
105 Schedules Today
Average Landing Rate at EKCH
-218 fpm
SAS (Scandinavian Airlines) Average Landing Rate at EKCH
-208 fpm
Total Fuel Purchased at EKCH by SAS (Scandinavian Airlines)
215,676.82 kgs / 475,481.12 lbs

Pilots Based at EKCH


Pilot ID
Pilot Name
Pilot Rank
No. of Flights
No. of Flying Hours
Charles Nielsen
75
137.03
Content